Inks Lake Village, Texas
Current Conditions -  °F | °C
As of 3:15 AM on Sunday 21 Dec 2014 (Local Time) from KAQO Reporting Station
Overcast Overcast  
Wind Chill: 46°   Ceiling: 1600
Heat Index: 48°   Visibility: 10mi
Dew Point: 45°   Wind: 5mph
Humidity: 87%   Direction: 190°S
Pressure: 30.15"   Gusts: NA
Location:  30.7573°N, 98.4911°W
Report Text: KAQO 210915Z AUTO 19004KT 10SM OVC016 09/07 A3015 RMK AO2
Loading
Personal Weather Stations






























Interactive Weather Map New forecast layout! Learn more

10-Day Weather Forecast

Advertisements
Track Severe Weather on mobile